Terminal Aerodrome Forecast
Issued by NWS Northern Indiana

Home | Current Version | Previous Version | Graphics & Text | Print | Product List | Glossary On
Versions: 1 2 3 4 5 6 7 8 9 10 11 12 13 14
994
FTUS43 KIWX 191400 AAA
TAFFWA
TAF AMD
KFWA 191400Z 1914/2012 25006KT 1/4SM FG VV002
      TEMPO 1915/1916 1SM BR BKN004
     FM191600 27005KT 5SM BR BKN009
     FM191700 27006KT P6SM SCT250=

USA.gov is the U.S. government's official web portal to all federal, state and local government web resources and services.